Time;durP1;ratioP1;P1;durP2;ratioP2;P2;SDS_P1;SDS_P2;PMS_P1;PMS_P2;Temp;Humidity;BMP_temperature;BMP_pressure;BME280_temperature;BME280_humidity;BME280_pressure;Samples;Min_cycle;Max_cycle;Signal;HPM_P1;HPM_P2
2021/05/25 00:00:27;;;;;;;1.48;1.08;;;;;;;8.06;70.75;98936.44;5070513;28;20034;-69
2021/05/25 00:02:53;;;;;;;2.03;0.88;;;;;;;8.05;71.20;98938.22;5062542;28;20033;-68
2021/05/25 00:05:25;;;;;;;1.33;0.85;;;;;;;7.98;70.98;98952.59;5072976;28;20036;-68
2021/05/25 00:07:50;;;;;;;3.25;1.02;;;;;;;7.89;71.14;98947.81;5070530;28;20059;-68
2021/05/25 00:10:16;;;;;;;1.88;0.90;;;;;;;7.86;71.25;98947.97;5070779;28;20052;-70
2021/05/25 00:12:42;;;;;;;1.98;1.23;;;;;;;7.81;70.99;98948.19;5072231;28;20028;-70
2021/05/25 00:15:11;;;;;;;3.58;1.05;;;;;;;7.79;71.35;98947.44;5070033;28;20029;-69
2021/05/25 00:17:37;;;;;;;1.48;0.95;;;;;;;7.78;71.83;98948.38;5070004;28;20119;-69
2021/05/25 00:20:05;;;;;;;2.05;1.20;;;;;;;7.77;71.90;98957.16;5070186;28;20056;-70
2021/05/25 00:22:31;;;;;;;2.28;1.23;;;;;;;7.76;71.59;98950.22;5070489;28;20024;-68
2021/05/25 00:24:56;;;;;;;1.42;0.75;;;;;;;7.76;71.83;98958.09;5069984;28;20523;-68
2021/05/25 00:27:21;;;;;;;1.67;1.20;;;;;;;7.72;71.42;98959.16;5070672;28;20028;-69
2021/05/25 00:29:47;;;;;;;2.83;1.25;;;;;;;7.67;72.07;98959.38;5070252;28;20040;-69
2021/05/25 00:32:12;;;;;;;1.30;1.15;;;;;;;7.69;71.31;98959.31;5070168;28;20043;-68
2021/05/25 00:34:37;;;;;;;4.32;1.15;;;;;;;7.72;72.60;98960.00;5069898;28;20039;-69
2021/05/25 00:37:03;;;;;;;3.20;1.60;;;;;;;7.74;71.59;98967.81;5069564;28;20037;-69
2021/05/25 00:39:28;;;;;;;1.50;1.00;;;;;;;7.74;71.54;98970.44;5070037;28;20036;-70
2021/05/25 00:41:53;;;;;;;1.88;1.10;;;;;;;7.71;71.64;98966.19;5070136;28;20063;-69
2021/05/25 00:44:19;;;;;;;1.35;0.98;;;;;;;7.74;71.76;98968.66;5069386;28;20028;-70
2021/05/25 00:46:44;;;;;;;3.25;1.20;;;;;;;7.72;72.09;98967.03;5068983;28;20166;-70
2021/05/25 00:49:10;;;;;;;2.03;1.10;;;;;;;7.69;71.66;98975.91;5069774;28;20116;-68
2021/05/25 00:51:35;;;;;;;1.60;1.00;;;;;;;7.70;71.68;98976.75;5069541;28;20040;-68
2021/05/25 00:54:01;;;;;;;1.50;1.02;;;;;;;7.70;71.48;98979.38;5069623;28;20059;-69
2021/05/25 00:56:27;;;;;;;1.30;1.00;;;;;;;7.74;71.57;98980.91;5068922;28;20075;-70
2021/05/25 00:58:53;;;;;;;3.83;1.15;;;;;;;7.76;71.61;98968.59;5061766;28;20499;-70
2021/05/25 01:01:19;;;;;;;2.83;1.05;;;;;;;7.79;70.81;98971.03;5041909;28;20500;-69
2021/05/25 01:03:47;;;;;;;2.47;0.93;;;;;;;7.80;71.30;98970.13;5069130;28;20546;-69
2021/05/25 01:06:12;;;;;;;1.45;1.10;;;;;;;7.83;71.45;98975.22;5068846;28;20493;-68
2021/05/25 01:08:39;;;;;;;1.05;0.70;;;;;;;7.80;71.12;98971.88;5069022;28;20037;-68
2021/05/25 01:11:10;;;;;;;1.08;0.85;;;;;;;7.84;71.37;98971.66;5069796;28;20037;-68
2021/05/25 01:16:13;;;;;;;1.40;1.08;;;;;;;7.86;71.18;98971.59;5069066;28;20048;-68
2021/05/25 01:18:39;;;;;;;2.92;1.38;;;;;;;7.87;71.64;98965.41;5068912;28;20068;-68
2021/05/25 01:21:09;;;;;;;7.68;2.40;;;;;;;7.87;71.72;98966.25;5051566;28;20103;-68
2021/05/25 01:23:36;;;;;;;0.88;0.77;;;;;;;7.86;71.47;98964.56;5068847;28;20035;-69
2021/05/25 01:26:03;;;;;;;1.75;1.20;;;;;;;7.86;72.01;98955.84;5068800;28;20461;-69
2021/05/25 01:28:29;;;;;;;1.63;1.00;;;;;;;7.84;71.95;98957.69;5068808;28;20028;-67
2021/05/25 01:30:55;;;;;;;2.00;0.85;;;;;;;7.80;72.15;98962.25;5068895;28;20499;-68
2021/05/25 01:33:25;;;;;;;1.08;0.90;;;;;;;7.76;72.20;98958.09;5069030;28;20036;-68
2021/05/25 01:35:51;;;;;;;2.20;1.00;;;;;;;7.75;71.93;98961.63;5068487;28;20035;-68
2021/05/25 01:38:17;;;;;;;1.50;1.00;;;;;;;7.76;72.12;98965.13;5068986;28;20037;-68
2021/05/25 01:40:44;;;;;;;1.10;0.90;;;;;;;7.71;72.13;98960.09;5069116;28;20040;-68
2021/05/25 01:43:10;;;;;;;1.08;0.98;;;;;;;7.73;71.95;98955.63;5068987;28;20032;-69
2021/05/25 01:45:37;;;;;;;0.88;0.88;;;;;;;7.70;71.94;98961.00;5068499;28;20036;-68
2021/05/25 01:48:05;;;;;;;2.35;1.10;;;;;;;7.67;72.07;98956.75;5069600;28;20075;-68
2021/05/25 01:50:31;;;;;;;1.50;1.40;;;;;;;7.65;72.16;98961.22;5069406;28;20031;-68
2021/05/25 01:53:01;;;;;;;3.50;1.55;;;;;;;7.58;72.53;98956.38;5068948;28;20179;-68
2021/05/25 01:55:31;;;;;;;2.28;1.25;;;;;;;7.59;72.47;98952.84;5070133;28;20092;-68
2021/05/25 01:57:59;;;;;;;2.17;1.00;;;;;;;7.59;72.47;98956.31;5073978;28;20059;-68
2021/05/25 02:00:25;;;;;;;2.83;1.25;;;;;;;7.61;72.36;98956.25;5074527;28;20488;-68
2021/05/25 02:02:51;;;;;;;3.78;1.17;;;;;;;7.65;72.40;98956.00;5073059;28;20116;-68
2021/05/25 02:05:16;;;;;;;1.30;0.80;;;;;;;7.71;72.25;98954.84;5072799;28;20549;-69
2021/05/25 02:07:53;;;;;;;2.45;1.00;;;;;;;7.73;71.94;98959.09;5072611;28;20410;-69
2021/05/25 02:10:28;;;;;;;1.45;1.10;;;;;;;7.77;71.71;98954.53;5075294;28;20819;-69
2021/05/25 02:12:58;;;;;;;2.22;1.05;;;;;;;7.76;71.78;98954.63;5072872;28;20404;-69
2021/05/25 02:15:23;;;;;;;1.15;0.93;;;;;;;7.76;71.90;98952.84;5075272;28;20028;-69
2021/05/25 02:17:48;;;;;;;0.98;0.82;;;;;;;7.80;72.10;98961.38;5072846;28;20500;-69
2021/05/25 02:20:14;;;;;;;1.48;1.20;;;;;;;7.79;72.28;98967.56;5073266;28;20111;-68
2021/05/25 02:22:40;;;;;;;1.33;1.05;;;;;;;7.80;72.66;98964.88;5072904;28;20103;-68
2021/05/25 02:25:05;;;;;;;3.05;1.00;;;;;;;7.77;73.72;98969.44;5072771;28;20496;-68
2021/05/25 02:27:31;;;;;;;2.67;1.20;;;;;;;7.64;74.40;98962.19;5072644;28;20593;-69
2021/05/25 02:29:57;;;;;;;1.67;1.10;;;;;;;7.64;76.11;98966.56;5072026;28;20094;-69
2021/05/25 02:32:22;;;;;;;1.92;1.10;;;;;;;7.68;76.10;98971.59;5072379;28;20078;-69
2021/05/25 02:34:47;;;;;;;1.23;0.95;;;;;;;7.66;75.74;98965.56;5072116;28;20055;-69
2021/05/25 02:37:13;;;;;;;2.42;1.10;;;;;;;7.63;76.01;98964.88;5071596;28;20028;-69
2021/05/25 02:39:38;;;;;;;1.98;1.23;;;;;;;7.65;75.95;98965.63;5072458;28;20037;-69
2021/05/25 02:42:04;;;;;;;1.85;1.00;;;;;;;7.67;76.36;98967.25;5072328;28;20346;-69
2021/05/25 02:44:29;;;;;;;1.25;1.00;;;;;;;7.71;76.47;98971.44;5071602;28;20032;-68
2021/05/25 02:46:55;;;;;;;1.20;1.10;;;;;;;7.70;76.53;98966.25;5071822;28;20157;-69
2021/05/25 02:49:20;;;;;;;2.13;1.20;;;;;;;7.67;77.01;98971.66;5071711;28;20032;-68
2021/05/25 02:51:45;;;;;;;4.93;1.50;;;;;;;7.69;76.83;98975.06;5071207;28;20029;-68
2021/05/25 02:54:11;;;;;;;5.18;1.40;;;;;;;7.67;77.09;98969.88;5071202;28;20021;-69
2021/05/25 02:56:36;;;;;;;5.05;1.40;;;;;;;7.70;77.58;98980.25;5071235;28;20028;-68
2021/05/25 02:59:02;;;;;;;3.35;1.83;;;;;;;7.73;77.92;98979.25;5071718;28;20048;-68
2021/05/25 03:01:27;;;;;;;2.85;1.30;;;;;;;7.73;77.98;98974.00;5071628;28;20353;-69
2021/05/25 03:03:52;;;;;;;3.25;1.50;;;;;;;7.75;78.20;98961.63;5071175;28;20105;-69
2021/05/25 03:06:18;;;;;;;1.33;1.23;;;;;;;7.74;77.90;98967.81;5070808;28;20060;-69
2021/05/25 03:08:44;;;;;;;3.25;1.27;;;;;;;7.72;78.27;98977.53;5070784;28;20210;-70
2021/05/25 03:11:09;;;;;;;3.08;1.92;;;;;;;7.76;78.50;98971.22;5071534;28;20549;-67
2021/05/25 03:13:34;;;;;;;2.72;1.33;;;;;;;7.78;77.87;98978.97;5071824;28;20036;-68
2021/05/25 03:16:00;;;;;;;2.28;1.20;;;;;;;7.82;77.77;98986.63;5070760;28;20029;-69
2021/05/25 03:18:25;;;;;;;1.98;1.17;;;;;;;7.80;77.83;98972.75;5071377;28;20048;-70
2021/05/25 03:20:50;;;;;;;2.97;1.40;;;;;;;7.80;78.02;98979.75;5071808;28;20029;-69
2021/05/25 03:23:17;;;;;;;2.92;1.38;;;;;;;7.78;77.65;98981.59;5071238;28;20087;-68
2021/05/25 03:25:43;;;;;;;4.72;1.30;;;;;;;7.82;77.74;98981.38;5070809;28;20602;-68
2021/05/25 03:28:09;;;;;;;2.10;1.48;;;;;;;7.86;77.45;98974.22;5071106;28;20039;-69
2021/05/25 03:30:37;;;;;;;2.20;1.40;;;;;;;7.88;77.42;98977.59;5071718;28;20107;-68
2021/05/25 03:33:02;;;;;;;1.33;1.00;;;;;;;7.88;77.43;98973.19;5070967;28;20035;-68
2021/05/25 03:35:28;;;;;;;1.90;1.63;;;;;;;7.92;76.96;98977.34;5070927;28;20028;-69
2021/05/25 03:37:54;;;;;;;1.98;1.42;;;;;;;7.94;77.22;98988.63;5071338;28;20039;-69
2021/05/25 03:40:19;;;;;;;3.28;1.30;;;;;;;7.91;76.82;98986.16;5071393;28;20055;-70
2021/05/25 03:42:46;;;;;;;2.20;1.67;;;;;;;7.94;77.34;98988.63;5071291;28;20411;-68
2021/05/25 03:45:13;;;;;;;4.20;1.42;;;;;;;7.98;76.90;98993.72;5070654;28;20029;-69
2021/05/25 03:47:38;;;;;;;2.38;1.10;;;;;;;8.00;76.70;98997.09;5071082;28;20028;-68
2021/05/25 03:50:09;;;;;;;3.47;1.48;;;;;;;8.03;76.88;98997.81;5071326;28;20368;-70
2021/05/25 03:52:40;;;;;;;2.10;1.33;;;;;;;8.07;77.15;98999.38;5052734;28;20027;-68
2021/05/25 03:55:13;;;;;;;3.80;1.30;;;;;;;8.07;76.76;98998.50;5070022;28;20111;-69
2021/05/25 04:00:05;;;;;;;2.58;1.45;;;;;;;7.92;77.25;99000.13;5071214;28;20040;-69
2021/05/25 04:02:32;;;;;;;3.42;1.85;;;;;;;7.88;77.23;99002.06;5059372;28;20036;-68
2021/05/25 04:04:57;;;;;;;2.42;1.50;;;;;;;7.87;77.47;98997.72;5070827;28;20089;-69
2021/05/25 04:07:22;;;;;;;2.58;1.67;;;;;;;7.86;77.62;99000.44;5070101;28;20038;-68
2021/05/25 04:09:47;;;;;;;3.22;1.38;;;;;;;7.85;77.84;98996.97;5070440;28;20036;-68
2021/05/25 04:12:13;;;;;;;7.60;2.13;;;;;;;7.83;77.71;99001.47;5070698;28;20452;-69
2021/05/25 04:14:38;;;;;;;6.78;1.80;;;;;;;7.83;78.20;98998.00;5072641;28;20508;-68
2021/05/25 04:17:04;;;;;;;5.40;1.52;;;;;;;7.83;77.99;99006.72;5070545;28;20036;-68
2021/05/25 04:19:30;;;;;;;10.15;1.98;;;;;;;7.84;77.84;99005.75;5070486;28;20043;-67
2021/05/25 04:21:55;;;;;;;2.88;1.50;;;;;;;7.87;78.30;99004.75;5071998;28;20029;-69
2021/05/25 04:24:21;;;;;;;2.00;1.40;;;;;;;7.86;78.63;99003.91;5070356;28;20035;-68
2021/05/25 04:26:46;;;;;;;5.95;1.73;;;;;;;7.86;78.24;99011.78;5070254;28;20032;-67
2021/05/25 04:29:11;;;;;;;3.10;1.95;;;;;;;7.82;78.43;99006.78;5070277;28;20454;-68
2021/05/25 04:31:37;;;;;;;9.88;2.85;;;;;;;7.83;78.02;99011.13;5070260;28;20442;-69
2021/05/25 04:34:03;;;;;;;2.03;1.52;;;;;;;7.81;78.39;99013.81;5070694;28;20032;-68
2021/05/25 04:36:28;;;;;;;2.03;1.25;;;;;;;7.81;78.47;99008.56;5070364;28;20028;-68
2021/05/25 04:38:54;;;;;;;4.82;1.58;;;;;;;7.82;78.08;99014.66;5072315;28;20036;-68
2021/05/25 04:41:19;;;;;;;3.80;1.40;;;;;;;7.84;77.97;99016.25;5073872;28;20403;-68
2021/05/25 04:43:51;;;;;;;3.88;1.30;;;;;;;7.84;77.45;99034.63;5055248;27;20463;-68
2021/05/25 04:46:16;;;;;;;2.00;1.42;;;;;;;7.83;77.95;99029.47;5060499;28;20535;-68
2021/05/25 04:48:42;;;;;;;3.15;1.10;;;;;;;7.82;77.90;99033.84;5059175;28;20048;-69
2021/05/25 04:51:07;;;;;;;2.42;1.23;;;;;;;7.82;77.60;99027.75;5052597;28;20037;-68
2021/05/25 04:53:32;;;;;;;3.05;0.95;;;;;;;7.84;78.32;99034.63;5048775;28;20088;-68
2021/05/25 04:55:59;;;;;;;2.00;1.25;;;;;;;7.86;78.42;99027.53;5048060;28;20029;-68
2021/05/25 04:58:25;;;;;;;1.38;1.08;;;;;;;7.83;77.64;99035.56;5048389;28;20029;-69
2021/05/25 05:00:50;;;;;;;4.03;1.20;;;;;;;7.79;77.09;99039.25;5047862;28;20045;-69
2021/05/25 05:03:15;;;;;;;3.00;1.40;;;;;;;7.78;76.46;99045.44;5046772;28;20029;-69
2021/05/25 05:05:41;;;;;;;2.22;2.05;;;;;;;7.78;77.05;99041.94;5046488;28;20167;-68
2021/05/25 05:08:06;;;;;;;1.55;1.40;;;;;;;7.82;76.59;99046.13;5046876;28;20037;-69
2021/05/25 05:10:32;;;;;;;1.00;0.90;;;;;;;7.87;76.86;99047.59;5046600;28;20443;-68
2021/05/25 05:12:57;;;;;;;3.92;1.48;;;;;;;7.91;76.67;99045.69;5046645;28;20055;-68
2021/05/25 05:15:23;;;;;;;1.27;1.17;;;;;;;7.92;76.58;99058.69;5045822;28;20049;-69
2021/05/25 05:17:49;;;;;;;3.70;1.20;;;;;;;7.96;77.05;99065.50;5046517;28;20037;-69
2021/05/25 05:20:15;;;;;;;4.22;1.60;;;;;;;7.96;76.27;99052.38;5045940;28;20128;-69
2021/05/25 05:22:41;;;;;;;2.33;1.38;;;;;;;7.99;75.87;99056.63;5045885;28;20124;-69
2021/05/25 05:25:10;;;;;;;3.45;1.58;;;;;;;8.04;75.78;99056.41;5045940;28;20093;-69
2021/05/25 05:27:35;;;;;;;2.03;1.27;;;;;;;8.11;75.71;99063.88;5045955;28;20108;-69
2021/05/25 05:30:01;;;;;;;1.33;0.95;;;;;;;8.15;75.98;99065.44;5045558;28;20455;-68
2021/05/25 05:32:27;;;;;;;1.10;1.00;;;;;;;8.20;75.72;99064.38;5045772;28;20029;-69
2021/05/25 05:34:52;;;;;;;1.70;1.20;;;;;;;8.26;75.83;99064.88;5045512;28;20532;-68
2021/05/25 05:37:17;;;;;;;4.38;1.70;;;;;;;8.34;76.98;99065.34;5045396;28;20116;-68
2021/05/25 05:39:43;;;;;;;1.42;1.10;;;;;;;8.33;75.31;99065.41;5045483;28;20041;-68
2021/05/25 05:42:09;;;;;;;4.85;2.40;;;;;;;8.33;75.73;99070.69;5045124;28;20041;-68
2021/05/25 05:44:35;;;;;;;1.13;1.00;;;;;;;8.29;75.06;99062.09;5045775;28;20091;-69
2021/05/25 05:47:00;;;;;;;1.20;1.10;;;;;;;8.28;75.33;99063.03;5045373;28;20029;-68
2021/05/25 05:49:25;;;;;;;2.50;1.13;;;;;;;8.27;74.81;99057.84;5045115;28;20047;-69
2021/05/25 05:51:51;;;;;;;2.25;1.17;;;;;;;8.18;75.04;99065.28;5045801;28;20053;-69
2021/05/25 05:54:17;;;;;;;1.60;1.20;;;;;;;8.24;74.95;99069.34;5037408;28;20492;-68
2021/05/25 05:56:44;;;;;;;1.13;0.95;;;;;;;8.32;74.47;99071.63;5031520;28;20037;-68
2021/05/25 05:59:10;;;;;;;1.15;1.05;;;;;;;8.36;74.59;99073.97;5031681;28;20532;-68
2021/05/25 06:01:35;;;;;;;1.10;1.00;;;;;;;8.32;74.36;99075.09;5032199;28;20121;-69
2021/05/25 06:04:01;;;;;;;2.78;1.45;;;;;;;8.33;75.24;99083.81;5031323;28;20044;-68
2021/05/25 06:06:26;;;;;;;2.13;1.50;;;;;;;8.24;75.37;99065.88;5031263;28;20105;-69
2021/05/25 06:08:51;;;;;;;2.42;1.40;;;;;;;8.19;76.00;99076.63;5031592;28;20041;-69
2021/05/25 06:11:17;;;;;;;3.00;1.50;;;;;;;8.10;77.06;99066.59;5030010;28;20037;-67
2021/05/25 06:13:42;;;;;;;2.92;1.58;;;;;;;8.15;76.97;99077.72;5031316;28;20041;-67
2021/05/25 06:16:08;;;;;;;4.97;2.63;;;;;;;8.19;76.29;99074.00;5031439;28;20037;-70
2021/05/25 06:18:35;;;;;;;1.75;1.45;;;;;;;8.30;76.49;99076.09;5030701;28;20417;-69
2021/05/25 06:21:02;;;;;;;3.55;1.83;;;;;;;8.40;75.17;99079.13;5031064;28;20037;-69
2021/05/25 06:23:29;;;;;;;2.72;1.90;;;;;;;8.54;74.64;99082.72;5031384;28;20033;-69
2021/05/25 06:25:54;;;;;;;2.90;1.52;;;;;;;8.61;75.56;99083.25;5031524;28;20091;-70
2021/05/25 06:28:20;;;;;;;3.83;1.52;;;;;;;8.68;75.13;99089.03;5031331;28;20033;-69
2021/05/25 06:30:45;;;;;;;1.88;1.23;;;;;;;8.71;75.30;99094.13;5031725;28;20087;-69
2021/05/25 06:33:11;;;;;;;3.95;1.20;;;;;;;8.72;74.78;99109.81;5032469;28;20564;-70
2021/05/25 06:35:36;;;;;;;2.83;1.90;;;;;;;8.69;74.92;99104.72;5032257;28;20106;-68
2021/05/25 06:38:03;;;;;;;2.25;1.50;;;;;;;8.60;75.06;99111.31;5032539;28;20040;-68
2021/05/25 06:40:28;;;;;;;3.22;1.50;;;;;;;8.52;75.76;99113.47;5033297;28;20386;-69
2021/05/25 06:42:54;;;;;;;1.73;1.27;;;;;;;8.48;75.97;99111.94;5027860;28;20045;-61
2021/05/25 06:45:20;;;;;;;1.95;1.40;;;;;;;8.44;75.97;99109.53;5029070;28;20046;-59
2021/05/25 06:47:46;;;;;;;2.85;1.60;;;;;;;8.43;75.23;99105.22;5030088;28;20072;-61
2021/05/25 06:50:13;;;;;;;4.55;1.50;;;;;;;8.43;76.45;99111.31;5028714;28;20087;-61
2021/05/25 06:52:39;;;;;;;2.10;1.33;;;;;;;8.37;75.25;99128.22;5031037;28;20108;-61
2021/05/25 06:55:05;;;;;;;2.28;1.50;;;;;;;8.31;76.30;99141.66;5023803;28;20109;-62
2021/05/25 06:57:30;;;;;;;3.20;1.60;;;;;;;8.20;75.69;99159.72;5016925;28;20040;-62
2021/05/25 06:59:56;;;;;;;1.90;1.27;;;;;;;8.09;75.76;99172.53;5030767;28;20033;-62
2021/05/25 07:02:23;;;;;;;1.95;1.27;;;;;;;7.97;76.89;99181.84;5030847;28;20022;-62
2021/05/25 07:04:52;;;;;;;1.35;1.00;;;;;;;7.78;75.05;99166.16;5030186;28;20112;-62
2021/05/25 07:07:17;;;;;;;1.42;1.08;;;;;;;7.61;73.57;99163.47;5029842;28;20041;-62
2021/05/25 07:09:43;;;;;;;1.05;0.95;;;;;;;7.46;73.66;99162.41;5030813;28;20037;-61
2021/05/25 07:12:09;;;;;;;1.77;1.40;;;;;;;7.38;74.99;99177.63;5030780;28;20053;-61
2021/05/25 07:14:35;;;;;;;0.98;0.82;;;;;;;7.33;74.22;99180.47;5009505;28;20508;-62
2021/05/25 07:17:00;;;;;;;1.27;1.08;;;;;;;7.31;75.31;99177.09;5025494;28;20042;-71
2021/05/25 07:19:25;;;;;;;1.08;1.00;;;;;;;7.31;75.66;99179.72;5027091;28;20038;-70
2021/05/25 07:21:51;;;;;;;0.85;0.85;;;;;;;7.29;76.16;99185.00;5005310;28;20389;-71
2021/05/25 07:24:16;;;;;;;1.25;0.98;;;;;;;7.28;76.48;99196.41;5005423;28;20062;-71
2021/05/25 07:26:41;;;;;;;1.40;1.00;;;;;;;7.25;76.77;99195.72;5005019;28;20072;-69
2021/05/25 07:29:07;;;;;;;2.33;1.27;;;;;;;7.25;77.82;99188.69;5027496;28;20431;-62
2021/05/25 07:31:33;;;;;;;4.00;1.73;;;;;;;7.26;78.37;99189.53;5028190;28;20040;-63
2021/05/25 07:33:58;;;;;;;3.95;1.58;;;;;;;7.31;78.76;99193.66;5022595;28;20069;-63
2021/05/25 07:36:23;;;;;;;2.08;1.60;;;;;;;7.32;79.01;99189.25;5007925;28;20053;-63
2021/05/25 07:38:49;;;;;;;3.70;2.05;;;;;;;7.38;79.59;99204.69;5010669;28;20081;-64
2021/05/25 07:41:15;;;;;;;3.45;1.90;;;;;;;7.41;80.30;99222.94;5010771;28;20516;-63
2021/05/25 07:43:40;;;;;;;2.35;1.75;;;;;;;7.40;79.49;99229.09;5010416;28;20066;-63
2021/05/25 07:46:06;;;;;;;3.92;1.80;;;;;;;7.43;80.97;99230.72;5011893;28;20054;-63
2021/05/25 07:48:31;;;;;;;6.45;2.78;;;;;;;7.46;80.50;99225.38;5012607;28;20105;-64
2021/05/25 07:50:57;;;;;;;3.10;2.00;;;;;;;7.48;80.57;99224.38;5011654;28;20506;-64
2021/05/25 07:53:23;;;;;;;3.15;1.75;;;;;;;7.48;80.17;99229.63;5011221;28;20084;-64
2021/05/25 07:55:48;;;;;;;7.95;2.70;;;;;;;7.51;80.71;99254.84;5011968;28;20037;-64
2021/05/25 07:58:14;;;;;;;5.65;2.08;;;;;;;7.46;79.48;99269.94;5011205;28;20558;-64
2021/05/25 08:00:39;;;;;;;7.72;2.40;;;;;;;7.43;80.24;99285.78;5011201;28;20497;-64
2021/05/25 08:03:05;;;;;;;2.13;1.67;;;;;;;7.36;78.75;99271.25;5011444;28;20121;-64
2021/05/25 08:05:33;;;;;;;3.13;1.70;;;;;;;7.27;78.82;99283.00;5010796;28;20038;-64
2021/05/25 08:08:02;;;;;;;1.80;1.30;;;;;;;7.19;79.15;99278.09;5010981;28;20038;-64
2021/05/25 08:10:28;;;;;;;4.55;2.55;;;;;;;7.12;78.98;99281.06;5017644;28;20056;-64
2021/05/25 08:12:54;;;;;;;6.10;1.30;;;;;;;7.16;78.68;99282.63;5011464;28;20493;-69
2021/05/25 08:15:21;;;;;;;3.00;1.23;;;;;;;7.24;78.87;99278.75;5022421;28;20147;-70
2021/05/25 08:20:17;;;;;;;1.52;1.10;;;;;;;7.47;79.77;99282.97;5022320;28;20057;-70
2021/05/25 08:22:45;;;;;;;1.30;1.20;;;;;;;7.66;78.47;99293.50;5023327;28;20508;-70
2021/05/25 08:25:12;;;;;;;4.65;1.55;;;;;;;7.85;78.42;99290.03;5022316;28;20052;-70
2021/05/25 08:27:37;;;;;;;3.60;1.50;;;;;;;8.02;78.11;99297.13;5023444;28;20580;-70
2021/05/25 08:30:05;;;;;;;2.85;1.45;;;;;;;8.15;76.93;99300.88;5022230;28;20087;-69
2021/05/25 08:32:31;;;;;;;2.20;1.50;;;;;;;8.36;76.99;99305.09;5021813;28;20033;-70
2021/05/25 08:34:56;;;;;;;1.80;1.40;;;;;;;8.53;76.39;99314.00;5022914;28;20500;-71
2021/05/25 08:37:21;;;;;;;2.97;1.85;;;;;;;8.73;76.68;99313.00;5021557;28;20053;-70
2021/05/25 08:39:47;;;;;;;3.25;2.03;;;;;;;9.05;76.05;99308.78;5021880;28;20041;-70
2021/05/25 08:42:13;;;;;;;2.67;1.50;;;;;;;9.24;75.84;99317.44;5023700;28;20462;-69
2021/05/25 08:44:39;;;;;;;3.05;2.05;;;;;;;9.52;74.32;99317.78;5024138;28;20090;-70
2021/05/25 08:47:06;;;;;;;5.35;2.42;;;;;;;9.43;75.18;99332.28;5023803;28;20033;-71
2021/05/25 08:49:34;;;;;;;6.65;3.28;;;;;;;9.28;74.80;99326.03;5024009;28;20052;-68
2021/05/25 08:52:00;;;;;;;4.93;2.17;;;;;;;9.20;76.13;99334.28;5023557;28;20026;-72
2021/05/25 08:54:26;;;;;;;2.90;2.03;;;;;;;9.23;76.49;99338.56;5023307;28;20034;-71
2021/05/25 08:56:51;;;;;;;2.85;1.90;;;;;;;9.19;76.11;99347.53;4998126;28;20567;-69
2021/05/25 08:59:17;;;;;;;2.85;1.90;;;;;;;9.21;75.74;99345.69;5022405;28;20049;-70
2021/05/25 09:01:44;;;;;;;3.58;2.20;;;;;;;9.39;75.48;99350.00;5020591;28;20051;-68
2021/05/25 09:04:12;;;;;;;3.97;2.80;;;;;;;9.42;76.32;99356.88;5022482;28;20530;-69
2021/05/25 09:06:43;;;;;;;4.40;2.30;;;;;;;9.50;75.00;99356.47;5018373;28;20075;-69
2021/05/25 09:09:14;;;;;;;3.28;2.25;;;;;;;9.53;75.54;99359.81;5017955;28;20033;-69
2021/05/25 09:12:02;;;;;;;3.15;2.40;;;;;;;9.50;74.19;99359.09;5022796;28;20029;-70
2021/05/25 09:14:28;;;;;;;9.80;3.30;;;;;;;9.44;74.92;99363.75;5022914;28;20033;-69
2021/05/25 09:17:22;;;;;;;5.05;3.47;;;;;;;9.45;75.62;99364.59;5022958;28;20048;-69
2021/05/25 09:19:55;;;;;;;5.75;3.75;;;;;;;9.62;75.72;99369.00;5023139;28;20041;-70
2021/05/25 09:22:39;;;;;;;5.90;3.70;;;;;;;10.26;73.20;99362.94;5023859;28;20087;-69
2021/05/25 09:25:08;;;;;;;4.07;3.35;;;;;;;10.75;71.10;99359.38;5023155;28;20072;-68
2021/05/25 09:27:40;;;;;;;4.55;3.33;;;;;;;11.66;69.91;99360.19;5021810;28;20040;-70
2021/05/25 09:30:21;;;;;;;7.95;3.53;;;;;;;11.72;68.07;99364.28;5025378;28;20041;-69
2021/05/25 09:32:48;;;;;;;8.43;4.38;;;;;;;12.62;66.25;99368.34;5026829;28;20068;-69
2021/05/25 09:35:15;;;;;;;6.50;3.45;;;;;;;13.01;62.37;99362.25;5026568;28;20029;-69
2021/05/25 09:37:46;;;;;;;6.20;3.35;;;;;;;13.05;63.67;99371.69;5026232;28;20045;-69
2021/05/25 09:40:13;;;;;;;5.05;3.25;;;;;;;13.00;63.96;99365.88;5026651;28;20029;-69
2021/05/25 09:42:39;;;;;;;4.63;2.70;;;;;;;12.67;63.58;99374.19;5026523;28;20048;-69
2021/05/25 09:45:09;;;;;;;5.95;2.65;;;;;;;12.33;65.48;99376.38;5026374;28;20037;-70
2021/05/25 09:47:38;;;;;;;3.72;2.22;;;;;;;12.01;65.62;99383.63;5026445;28;20048;-69
2021/05/25 09:50:06;;;;;;;4.10;2.60;;;;;;;11.66;66.75;99393.66;5027094;28;20036;-72
2021/05/25 09:52:32;;;;;;;5.97;3.03;;;;;;;11.18;68.90;99405.25;5026914;28;20033;-70
2021/05/25 09:55:11;;;;;;;4.60;2.97;;;;;;;10.89;68.92;99398.16;5026409;28;20114;-69
2021/05/25 09:57:50;;;;;;;4.38;3.17;;;;;;;10.78;69.72;99401.41;5026001;28;20044;-67
2021/05/25 10:00:39;;;;;;;4.60;2.85;;;;;;;10.78;70.99;99396.13;5024877;28;20116;-68
2021/05/25 10:03:06;;;;;;;6.43;4.03;;;;;;;10.68;70.55;99395.81;5026164;28;20041;-69
2021/05/25 10:05:31;;;;;;;8.57;3.67;;;;;;;10.61;72.00;99401.47;5026312;28;20641;-69
2021/05/25 10:08:00;;;;;;;7.70;4.20;;;;;;;10.81;72.15;99398.59;5026085;28;20041;-70
2021/05/25 10:10:29;;;;;;;7.55;4.72;;;;;;;12.10;68.54;99400.72;5025173;28;20062;-70
2021/05/25 10:12:56;;;;;;;12.27;6.10;;;;;;;12.60;66.36;99391.41;5025550;28;25148;-69
2021/05/25 10:15:26;;;;;;;12.70;7.13;;;;;;;12.91;66.38;99392.91;5021735;28;20056;-69
2021/05/25 10:20:20;;;;;;;6.70;3.80;;;;;;;12.97;65.36;99386.38;5025411;28;20025;-70
2021/05/25 10:22:46;;;;;;;6.95;3.55;;;;;;;13.02;66.13;99390.44;5025176;28;20455;-70
2021/05/25 10:25:15;;;;;;;12.57;4.50;;;;;;;13.02;65.97;99395.72;5024335;28;20385;-70
2021/05/25 10:27:42;;;;;;;7.30;3.85;;;;;;;13.10;65.41;99385.47;5025036;28;20551;-71
2021/05/25 10:30:22;;;;;;;6.47;3.25;;;;;;;14.52;61.54;99383.69;5025327;28;20038;-69
2021/05/25 10:32:51;;;;;;;5.78;3.42;;;;;;;14.67;60.89;99384.44;5025869;28;20045;-70
2021/05/25 10:35:19;;;;;;;4.85;3.22;;;;;;;15.70;56.54;99374.97;5025355;28;20524;-68
2021/05/25 10:38:03;;;;;;;6.22;3.17;;;;;;;16.77;54.30;99376.28;5025607;28;20048;-70
2021/05/25 10:40:41;;;;;;;10.18;4.03;;;;;;;17.70;53.31;99370.31;5025755;28;20029;-69
2021/05/25 10:43:34;;;;;;;8.98;3.22;;;;;;;17.06;53.17;99365.09;5025431;28;20037;-70
2021/05/25 10:46:11;;;;;;;8.73;3.10;;;;;;;16.00;56.09;99354.97;5024949;28;20088;-69
2021/05/25 10:49:27;;;;;;;5.95;2.55;;;;;;;15.32;58.00;99349.50;5025745;28;20037;-70
2021/05/25 10:51:55;;;;;;;5.63;3.25;;;;;;;15.12;57.16;99335.06;5025816;28;20045;-69
2021/05/25 10:54:42;;;;;;;9.07;3.33;;;;;;;14.80;56.85;99321.56;5026269;28;20504;-69
2021/05/25 10:57:36;;;;;;;7.35;2.60;;;;;;;14.52;57.28;99328.00;5016206;28;20624;-69
2021/05/25 11:00:09;;;;;;;7.35;3.50;;;;;;;14.90;53.44;99349.09;5025440;28;20737;-68
2021/05/25 11:02:52;;;;;;;4.70;2.30;;;;;;;14.98;53.63;99340.56;5025237;28;20500;-69
2021/05/25 11:05:27;;;;;;;3.80;2.33;;;;;;;14.88;51.81;99339.56;5025192;28;20033;-69
2021/05/25 11:07:53;;;;;;;5.50;2.13;;;;;;;14.99;52.62;99342.28;5025010;28;20041;-69
2021/05/25 11:10:27;;;;;;;9.52;3.17;;;;;;;14.92;51.24;99333.09;5025170;28;20468;-71
2021/05/25 11:13:18;;;;;;;7.47;2.33;;;;;;;15.21;50.65;99334.38;5024609;28;20037;-68
2021/05/25 11:16:11;;;;;;;6.35;2.47;;;;;;;15.07;50.50;99336.41;5024236;28;20646;-69
2021/05/25 11:24:36;;;;;;;7.38;2.17;;;;;;;15.15;49.20;99340.16;5024564;28;20068;-71
2021/05/25 11:27:08;;;;;;;5.13;2.47;;;;;;;15.20;48.32;99347.78;5022516;28;20052;-71
2021/05/25 11:29:58;;;;;;;4.90;2.20;;;;;;;15.44;48.05;99358.34;5023536;28;20037;-71
2021/05/25 11:32:37;;;;;;;3.83;1.92;;;;;;;15.41;47.04;99361.25;5024955;28;20061;-70
2021/05/25 11:35:09;;;;;;;4.80;1.80;;;;;;;15.28;48.53;99373.75;5019224;28;20087;-68
2021/05/25 11:37:43;;;;;;;14.07;3.03;;;;;;;15.14;46.88;99393.38;5025027;28;20029;-68
2021/05/25 11:40:17;;;;;;;6.55;2.13;;;;;;;15.24;48.92;99392.56;5024892;28;20029;-69
2021/05/25 11:42:44;;;;;;;5.47;2.22;;;;;;;14.99;48.10;99390.91;5024510;28;20044;-69
2021/05/25 11:45:11;;;;;;;3.95;2.10;;;;;;;14.58;48.30;99420.44;5024119;28;20044;-69
2021/05/25 11:47:41;;;;;;;5.50;1.75;;;;;;;14.06;49.53;99437.34;5008302;28;20055;-70
2021/05/25 11:50:09;;;;;;;5.13;2.25;;;;;;;13.66;51.91;99467.41;5004923;28;20168;-68
2021/05/25 11:52:36;;;;;;;4.78;1.63;;;;;;;13.15;51.45;99479.63;5004809;28;20034;-68
2021/05/25 11:55:05;;;;;;;5.05;2.08;;;;;;;12.70;53.15;99479.81;5004166;28;20044;-68
2021/05/25 11:57:31;;;;;;;4.00;1.60;;;;;;;12.43;57.21;99485.88;5004295;28;20033;-69